createdAt,value
2023-03-11T00:01:07.657Z,2.33
2023-03-11T00:03:35.127Z,3.30
2023-03-11T00:06:02.991Z,2.83
2023-03-11T00:08:30.560Z,4.97
2023-03-11T00:11:00.282Z,3.80
2023-03-11T00:13:28.426Z,3.80
2023-03-11T00:15:56.603Z,3.77
2023-03-11T00:18:26.992Z,3.87
2023-03-11T00:20:55.511Z,3.80
2023-03-11T00:23:23.202Z,2.43
2023-03-11T00:25:50.669Z,2.93
2023-03-11T00:28:20.951Z,4.67
2023-03-11T00:30:49.444Z,3.00
2023-03-11T00:33:18.298Z,2.40
2023-03-11T00:35:46.433Z,2.90
2023-03-11T00:38:15.588Z,3.37
2023-03-11T00:40:43.321Z,2.90
2023-03-11T00:43:10.762Z,2.43
2023-03-11T00:45:38.524Z,2.83
2023-03-11T00:48:06.090Z,3.70
2023-03-11T00:50:34.645Z,3.10
2023-03-11T00:53:02.494Z,3.37
2023-03-11T00:55:31.282Z,4.53
2023-03-11T00:58:01.539Z,3.73
2023-03-11T01:00:35.487Z,3.73
2023-03-11T01:03:04.116Z,2.27
2023-03-11T01:05:32.523Z,1.63
2023-03-11T01:08:00.409Z,3.10
2023-03-11T01:10:28.849Z,3.00
2023-03-11T01:12:56.185Z,3.00
2023-03-11T01:15:25.384Z,3.87
2023-03-11T01:17:52.707Z,3.00
2023-03-11T01:20:20.192Z,2.37
2023-03-11T01:22:47.948Z,2.17
2023-03-11T01:25:17.046Z,1.93
2023-03-11T01:27:44.864Z,2.53
2023-03-11T01:30:14.600Z,3.10
2023-03-11T01:32:41.969Z,2.83
2023-03-11T01:35:10.931Z,3.43
2023-03-11T01:37:38.244Z,2.40
2023-03-11T01:40:06.191Z,3.93
2023-03-11T01:42:33.742Z,1.83
2023-03-11T01:45:01.096Z,2.50
2023-03-11T01:47:36.436Z,3.27
2023-03-11T01:50:05.156Z,2.40
2023-03-11T01:52:32.492Z,2.80
2023-03-11T01:54:59.816Z,3.07
2023-03-11T01:57:27.181Z,3.27
2023-03-11T01:59:57.804Z,3.63
2023-03-11T02:02:46.355Z,3.37
2023-03-11T02:05:14.497Z,3.40
2023-03-11T02:07:42.299Z,3.37
2023-03-11T02:10:13.607Z,3.27
2023-03-11T02:12:41.330Z,2.00
2023-03-11T02:15:10.347Z,2.67
2023-03-11T02:17:38.242Z,3.43
2023-03-11T02:20:12.503Z,2.57
2023-03-11T02:22:43.840Z,3.07
2023-03-11T02:25:37.717Z,3.17
2023-03-11T02:28:06.821Z,1.40
2023-03-11T02:30:35.375Z,3.70
2023-03-11T02:33:03.701Z,2.40
2023-03-11T02:35:31.682Z,2.60
2023-03-11T02:38:00.454Z,2.43
2023-03-11T02:40:29.910Z,3.00
2023-03-11T02:42:58.816Z,1.40
2023-03-11T02:45:27.461Z,3.30
2023-03-11T02:47:56.315Z,2.53
2023-03-11T02:50:25.813Z,2.67
2023-03-11T02:52:53.169Z,3.07
2023-03-11T02:55:22.748Z,3.53
2023-03-11T02:57:50.253Z,3.70
2023-03-11T03:00:18.254Z,4.63
2023-03-11T03:02:57.344Z,3.73
2023-03-11T03:05:26.123Z,4.03
2023-03-11T03:07:53.571Z,3.07
2023-03-11T03:10:22.204Z,3.70
2023-03-11T03:12:49.830Z,3.60
2023-03-11T03:15:17.559Z,4.43
2023-03-11T03:17:46.258Z,4.13
2023-03-11T03:20:14.485Z,5.23
2023-03-11T03:22:46.612Z,4.20
2023-03-11T03:25:16.718Z,3.77
2023-03-11T03:27:44.220Z,3.67
2023-03-11T03:30:11.912Z,3.50
2023-03-11T03:32:40.154Z,3.67
2023-03-11T03:35:11.479Z,4.33
2023-03-11T03:37:55.273Z,4.47
2023-03-11T03:40:23.235Z,3.60
2023-03-11T03:42:51.696Z,3.83
2023-03-11T03:45:19.796Z,3.03
2023-03-11T03:47:47.871Z,2.87
2023-03-11T03:50:15.525Z,3.33
2023-03-11T03:52:45.838Z,2.37
2023-03-11T03:55:13.331Z,3.50
2023-03-11T03:57:40.913Z,2.00
2023-03-11T04:00:11.174Z,3.57
2023-03-11T04:02:41.314Z,3.53
2023-03-11T04:05:16.917Z,4.50
2023-03-11T04:07:44.936Z,2.73
2023-03-11T04:10:14.370Z,3.63
2023-03-11T04:12:42.733Z,5.40
2023-03-11T04:15:10.470Z,4.30
2023-03-11T04:17:39.329Z,4.57
2023-03-11T04:20:08.256Z,5.07
2023-03-11T04:22:35.900Z,5.53
2023-03-11T04:25:03.843Z,5.03
2023-03-11T04:27:32.938Z,5.57
2023-03-11T04:30:01.354Z,5.00
2023-03-11T04:32:29.739Z,5.13
2023-03-11T04:34:57.174Z,5.50
2023-03-11T04:37:28.283Z,6.10
2023-03-11T04:39:55.747Z,6.40
2023-03-11T04:42:23.140Z,6.03
2023-03-11T04:44:50.923Z,6.20
2023-03-11T04:47:18.474Z,5.37
2023-03-11T04:49:46.602Z,4.20
2023-03-11T04:52:14.086Z,7.57
2023-03-11T04:54:41.482Z,7.00
2023-03-11T04:57:09.275Z,8.00
2023-03-11T04:59:37.712Z,7.60
2023-03-11T05:02:05.578Z,8.13
2023-03-11T05:04:33.545Z,7.47
2023-03-11T05:07:01.435Z,6.20
2023-03-11T05:09:28.817Z,8.70
2023-03-11T05:11:56.631Z,7.63
2023-03-11T05:14:24.327Z,6.93
2023-03-11T05:16:53.096Z,9.27
2023-03-11T05:19:34.547Z,8.80
2023-03-11T05:22:08.362Z,8.03
2023-03-11T05:24:37.300Z,8.00
2023-03-11T05:27:05.596Z,8.57
2023-03-11T05:29:34.548Z,6.80
2023-03-11T05:32:01.887Z,6.30
2023-03-11T05:34:29.238Z,7.93
2023-03-11T05:36:56.671Z,6.23
2023-03-11T05:39:24.599Z,6.43
2023-03-11T05:41:52.114Z,7.43
2023-03-11T05:44:19.622Z,4.70
2023-03-11T05:46:46.983Z,6.43
2023-03-11T05:49:14.802Z,6.07
2023-03-11T05:51:42.177Z,5.43
2023-03-11T05:54:14.973Z,5.90
2023-03-11T05:56:45.855Z,5.63
2023-03-11T05:59:16.497Z,5.87
2023-03-11T06:01:45.646Z,4.77
2023-03-11T06:04:13.233Z,4.07
2023-03-11T06:06:41.679Z,4.43
2023-03-11T06:09:13.691Z,4.07
2023-03-11T06:11:41.808Z,4.43
2023-03-11T06:14:11.724Z,4.10
2023-03-11T06:16:39.153Z,3.73
2023-03-11T06:19:06.828Z,3.20
2023-03-11T06:21:38.553Z,3.93
2023-03-11T06:24:06.189Z,3.77
2023-03-11T06:26:33.595Z,4.03
2023-03-11T06:29:01.516Z,5.33
2023-03-11T06:31:30.015Z,4.20
2023-03-11T06:34:06.770Z,2.87
2023-03-11T06:36:34.456Z,3.70
2023-03-11T06:39:02.206Z,3.73
2023-03-11T06:41:29.696Z,3.53
2023-03-11T06:43:59.754Z,3.20
2023-03-11T06:46:28.298Z,3.17
2023-03-11T06:48:56.645Z,4.47
2023-03-11T06:51:24.727Z,3.90
2023-03-11T06:53:53.761Z,5.20
2023-03-11T06:56:23.271Z,3.23
2023-03-11T06:58:58.440Z,4.00
2023-03-11T07:01:30.343Z,3.90
2023-03-11T07:03:59.333Z,4.13
2023-03-11T07:06:28.028Z,3.87
2023-03-11T07:09:02.768Z,3.10
2023-03-11T07:11:31.550Z,3.50
2023-03-11T07:14:06.506Z,4.20
2023-03-11T07:16:39.347Z,3.20
2023-03-11T07:19:12.774Z,2.77
2023-03-11T07:21:40.801Z,4.33
2023-03-11T07:24:08.240Z,3.70
2023-03-11T07:26:36.836Z,3.43
2023-03-11T07:29:04.226Z,4.33
2023-03-11T07:31:32.602Z,3.10
2023-03-11T07:34:01.125Z,3.90
2023-03-11T07:36:28.699Z,3.37
2023-03-11T07:38:58.408Z,3.50
2023-03-11T07:41:26.280Z,4.63
2023-03-11T07:43:58.407Z,3.33
2023-03-11T07:46:26.462Z,4.10
2023-03-11T07:48:53.816Z,4.07
2023-03-11T07:51:31.264Z,4.67
2023-03-11T07:53:59.778Z,4.33
2023-03-11T07:56:28.329Z,4.00
2023-03-11T07:58:55.702Z,4.47
2023-03-11T08:01:23.868Z,4.47
2023-03-11T08:03:52.981Z,4.13
2023-03-11T08:06:22.699Z,3.73
2023-03-11T08:08:51.460Z,3.97
2023-03-11T08:11:19.323Z,3.90
2023-03-11T08:13:47.220Z,3.93
2023-03-11T08:16:15.784Z,3.60
2023-03-11T08:18:43.689Z,3.67
2023-03-11T08:21:13.304Z,3.93
2023-03-11T08:23:40.876Z,4.90
2023-03-11T08:26:09.558Z,3.50
2023-03-11T08:28:37.445Z,3.20
2023-03-11T08:31:12.274Z,3.37
2023-03-11T08:33:39.613Z,3.33
2023-03-11T08:36:07.358Z,3.60
2023-03-11T08:38:34.882Z,3.43
2023-03-11T08:41:02.345Z,4.10
2023-03-11T08:43:29.734Z,3.80
2023-03-11T08:45:57.053Z,4.17
2023-03-11T08:48:25.448Z,3.67
2023-03-11T08:50:54.627Z,4.37
2023-03-11T08:53:25.418Z,3.10
2023-03-11T08:55:53.166Z,3.23
2023-03-11T08:58:21.298Z,3.37
2023-03-11T09:00:48.565Z,2.80
2023-03-11T09:03:15.883Z,3.30
2023-03-11T09:05:43.201Z,2.87
2023-03-11T09:08:11.234Z,3.20
2023-03-11T09:10:38.644Z,2.60
2023-03-11T09:13:05.939Z,3.00
2023-03-11T09:15:34.777Z,2.70
2023-03-11T09:18:02.089Z,2.57
2023-03-11T09:20:29.425Z,3.77
2023-03-11T09:22:56.698Z,3.43
2023-03-11T09:25:23.987Z,3.27
2023-03-11T09:27:51.557Z,3.23
2023-03-11T09:30:19.062Z,4.47
2023-03-11T09:32:46.372Z,3.27
2023-03-11T09:35:13.866Z,3.63
2023-03-11T09:37:51.071Z,3.83
2023-03-11T09:40:21.290Z,2.90
2023-03-11T09:43:04.372Z,2.87
2023-03-11T09:45:34.016Z,2.80
2023-03-11T09:48:13.489Z,3.27
2023-03-11T09:50:59.784Z,2.87
2023-03-11T09:53:30.802Z,2.53
2023-03-11T09:55:59.898Z,2.97
2023-03-11T09:58:47.657Z,2.43
2023-03-11T10:01:20.965Z,3.60
2023-03-11T10:03:49.171Z,2.20
2023-03-11T10:06:27.197Z,4.87
2023-03-11T10:09:08.468Z,3.03
2023-03-11T10:11:51.238Z,2.57
2023-03-11T10:14:26.428Z,3.67
2023-03-11T10:17:00.599Z,3.10
2023-03-11T10:19:47.356Z,2.53
2023-03-11T10:22:20.812Z,2.80
2023-03-11T10:24:55.981Z,3.00
2023-03-11T10:27:32.920Z,2.53
2023-03-11T10:30:07.344Z,3.30
2023-03-11T10:32:43.694Z,3.10
2023-03-11T10:35:11.051Z,3.00
2023-03-11T10:37:49.647Z,2.90
2023-03-11T10:40:24.451Z,2.63
2023-03-11T10:42:52.562Z,3.37
2023-03-11T10:45:20.959Z,4.47
2023-03-11T10:47:48.245Z,2.50
2023-03-11T10:50:17.931Z,3.50
2023-03-11T10:53:04.377Z,2.90
2023-03-11T10:55:31.741Z,2.30
2023-03-11T10:58:05.691Z,3.07
2023-03-11T11:00:33.102Z,3.10
2023-03-11T11:03:02.046Z,3.67
2023-03-11T11:05:32.644Z,3.10
2023-03-11T11:08:03.670Z,2.77
2023-03-11T11:10:31.857Z,2.60
2023-03-11T11:13:24.843Z,2.40
2023-03-11T11:15:57.920Z,2.40
2023-03-11T11:18:27.132Z,2.10
2023-03-11T11:21:01.084Z,2.53
2023-03-11T11:23:37.874Z,2.70
2023-03-11T11:26:07.138Z,3.00
2023-03-11T11:28:35.358Z,1.67
2023-03-11T11:31:06.985Z,1.83
2023-03-11T11:33:39.550Z,2.03
2023-03-11T11:36:12.607Z,2.17
2023-03-11T11:38:40.343Z,2.33
2023-03-11T11:41:10.352Z,2.07
2023-03-11T11:43:43.802Z,6.37
2023-03-11T11:46:16.321Z,2.60
2023-03-11T11:48:50.389Z,2.00
2023-03-11T11:51:21.194Z,2.00
2023-03-11T11:53:51.277Z,2.07
2023-03-11T11:56:18.670Z,1.57
2023-03-11T11:58:46.026Z,2.57
2023-03-11T12:01:32.103Z,1.70
2023-03-11T12:04:18.146Z,2.17
2023-03-11T12:06:51.266Z,1.53
2023-03-11T12:09:24.315Z,2.50
2023-03-11T12:12:35.010Z,1.97
2023-03-11T12:15:07.634Z,1.30
2023-03-11T12:17:37.545Z,2.13
2023-03-11T12:20:12.684Z,1.63
2023-03-11T12:23:00.720Z,2.40
2023-03-11T12:25:36.742Z,2.30
2023-03-11T12:28:09.453Z,1.80
2023-03-11T12:30:40.336Z,2.37
2023-03-11T12:33:13.639Z,1.57
2023-03-11T12:35:41.093Z,2.00
2023-03-11T12:38:16.910Z,2.43
2023-03-11T12:40:49.045Z,1.87
2023-03-11T12:43:33.892Z,1.40
2023-03-11T12:46:05.714Z,1.10
2023-03-11T12:48:34.602Z,1.37
2023-03-11T12:51:02.285Z,1.60
2023-03-11T12:53:48.654Z,2.30
2023-03-11T12:56:21.942Z,1.43
2023-03-11T12:58:57.021Z,2.27
2023-03-11T13:01:53.850Z,1.43
2023-03-11T13:04:21.268Z,1.80
2023-03-11T13:06:48.588Z,1.57
2023-03-11T13:09:17.545Z,1.33
2023-03-11T13:11:48.395Z,1.87
2023-03-11T13:14:18.547Z,1.87
2023-03-11T13:16:48.809Z,1.87
2023-03-11T13:19:28.409Z,2.00
2023-03-11T13:21:59.455Z,3.00
2023-03-11T13:24:27.011Z,1.70
2023-03-11T13:27:02.265Z,1.13
2023-03-11T13:29:43.911Z,1.93
2023-03-11T13:32:26.709Z,1.73
2023-03-11T13:34:54.143Z,1.93
2023-03-11T13:37:21.401Z,1.53
2023-03-11T13:40:01.637Z,1.70
2023-03-11T13:42:31.892Z,1.70
2023-03-11T13:44:59.560Z,1.27
2023-03-11T13:47:27.661Z,1.50
2023-03-11T13:49:55.434Z,1.93
2023-03-11T13:52:26.357Z,2.00
2023-03-11T13:55:00.344Z,1.30
2023-03-11T13:57:38.394Z,1.63
2023-03-11T14:00:16.516Z,1.60
2023-03-11T14:02:46.344Z,1.60
2023-03-11T14:05:16.267Z,1.43
2023-03-11T14:07:43.664Z,1.70
2023-03-11T14:10:19.062Z,2.07
2023-03-11T14:12:46.546Z,1.80
2023-03-11T14:15:15.449Z,2.03
2023-03-11T14:17:42.728Z,2.43
2023-03-11T14:20:18.332Z,1.83
2023-03-11T14:22:53.119Z,1.87
2023-03-11T14:25:27.686Z,1.90
2023-03-11T14:28:00.165Z,2.60
2023-03-11T14:30:29.376Z,2.53
2023-03-11T14:32:57.801Z,1.87
2023-03-11T14:35:25.705Z,1.70
2023-03-11T14:37:53.661Z,1.30
2023-03-11T14:40:21.298Z,1.53
2023-03-11T14:42:53.728Z,1.70
2023-03-11T14:45:22.949Z,2.67
2023-03-11T14:48:13.472Z,2.33
2023-03-11T14:50:46.082Z,2.90
2023-03-11T14:53:18.782Z,2.40
2023-03-11T14:55:53.300Z,2.30
2023-03-11T14:58:28.252Z,1.77
2023-03-11T15:01:01.174Z,1.97
2023-03-11T15:03:29.042Z,1.57
2023-03-11T15:05:58.717Z,2.20
2023-03-11T15:08:29.255Z,3.40
2023-03-11T15:11:08.775Z,3.07
2023-03-11T15:13:39.462Z,1.60
2023-03-11T15:16:08.556Z,2.03
2023-03-11T15:18:41.503Z,1.77
2023-03-11T15:21:17.847Z,1.70
2023-03-11T15:23:46.706Z,1.53
2023-03-11T15:26:30.349Z,1.93
2023-03-11T15:29:21.272Z,2.40
2023-03-11T15:31:48.899Z,1.67
2023-03-11T15:34:23.173Z,2.10
2023-03-11T15:36:59.264Z,1.63
2023-03-11T15:39:29.214Z,1.90
2023-03-11T15:42:10.525Z,1.80
2023-03-11T15:44:52.734Z,2.30
2023-03-11T15:47:26.604Z,1.73
2023-03-11T15:49:58.241Z,2.17
2023-03-11T15:52:27.462Z,2.40
2023-03-11T15:54:56.346Z,1.57
2023-03-11T15:57:30.029Z,2.23
2023-03-11T16:00:04.313Z,2.20
2023-03-11T16:02:38.977Z,2.40
2023-03-11T16:05:15.984Z,2.50
2023-03-11T16:07:43.407Z,1.63
2023-03-11T16:10:11.850Z,2.53
2023-03-11T16:12:39.565Z,1.80
2023-03-11T16:15:07.266Z,2.17
2023-03-11T16:17:49.003Z,2.23
2023-03-11T16:20:19.705Z,2.57
2023-03-11T16:22:49.904Z,2.27
2023-03-11T16:25:22.257Z,2.50
2023-03-11T16:27:54.055Z,2.37
2023-03-11T16:30:25.314Z,2.37
2023-03-11T16:32:53.393Z,2.80
2023-03-11T16:35:22.916Z,2.13
2023-03-11T16:37:52.135Z,2.53
2023-03-11T16:40:26.769Z,2.00
2023-03-11T16:43:00.136Z,3.03
2023-03-11T16:45:29.392Z,2.83
2023-03-11T16:47:57.212Z,2.50
2023-03-11T16:50:26.924Z,3.07
2023-03-11T16:52:56.445Z,3.00
2023-03-11T16:55:24.324Z,2.90
2023-03-11T16:57:55.692Z,3.10
2023-03-11T17:00:24.965Z,3.80
2023-03-11T17:02:55.415Z,3.03
2023-03-11T17:05:28.947Z,3.10
2023-03-11T17:08:06.321Z,3.13
2023-03-11T17:10:42.228Z,6.50
2023-03-11T17:13:11.744Z,4.20
2023-03-11T17:15:39.086Z,4.03
2023-03-11T17:18:06.494Z,3.40
2023-03-11T17:20:34.015Z,3.97
2023-03-11T17:23:01.414Z,3.43
2023-03-11T17:25:29.214Z,3.57
2023-03-11T17:27:56.787Z,3.40
2023-03-11T17:30:36.072Z,4.00
2023-03-11T17:33:04.564Z,3.00
2023-03-11T17:35:32.094Z,2.40
2023-03-11T17:37:59.508Z,3.27
2023-03-11T17:40:29.128Z,3.03
2023-03-11T17:42:56.865Z,3.40
2023-03-11T17:45:24.162Z,3.70
2023-03-11T17:47:51.457Z,4.50
2023-03-11T17:50:19.034Z,4.90
2023-03-11T17:52:49.452Z,4.10
2023-03-11T17:55:16.888Z,5.20
2023-03-11T17:57:45.693Z,4.13
2023-03-11T18:00:14.879Z,5.17
2023-03-11T18:02:43.397Z,5.37
2023-03-11T18:05:10.798Z,6.50
2023-03-11T18:07:42.312Z,5.23
2023-03-11T18:10:10.328Z,5.97
2023-03-11T18:12:38.078Z,4.17
2023-03-11T18:15:08.097Z,4.13
2023-03-11T18:17:35.706Z,5.67
2023-03-11T18:20:03.435Z,4.27
2023-03-11T18:22:30.908Z,4.00
2023-03-11T18:24:58.185Z,3.37
2023-03-11T18:27:25.602Z,3.40
2023-03-11T18:29:57.260Z,4.53
2023-03-11T18:32:25.009Z,3.70
2023-03-11T18:34:52.486Z,3.97
2023-03-11T18:37:20.854Z,3.53
2023-03-11T18:39:48.284Z,3.60
2023-03-11T18:42:16.002Z,3.27
2023-03-11T18:44:43.441Z,4.23
2023-03-11T18:47:11.481Z,3.60
2023-03-11T18:49:39.078Z,3.53
2023-03-11T18:52:06.448Z,3.70
2023-03-11T18:54:33.946Z,3.43
2023-03-11T18:57:01.581Z,3.90
2023-03-11T18:59:28.931Z,3.23
2023-03-11T19:01:56.249Z,3.17
2023-03-11T19:04:23.607Z,3.30
2023-03-11T19:06:51.008Z,2.70
2023-03-11T19:09:18.913Z,3.30
2023-03-11T19:11:46.387Z,3.63
2023-03-11T19:14:14.365Z,3.43
2023-03-11T19:16:44.014Z,4.53
2023-03-11T19:19:12.230Z,3.93
2023-03-11T19:21:39.954Z,4.40
2023-03-11T19:24:08.058Z,3.63
2023-03-11T19:26:44.852Z,3.90
2023-03-11T19:29:14.113Z,4.27
2023-03-11T19:31:44.097Z,3.40
2023-03-11T19:34:11.621Z,4.07
2023-03-11T19:36:39.496Z,3.13
2023-03-11T19:39:07.083Z,3.57
2023-03-11T19:41:34.625Z,3.60
2023-03-11T19:44:04.353Z,3.40
2023-03-11T19:46:34.684Z,3.57
2023-03-11T19:49:02.583Z,3.10
2023-03-11T19:51:38.770Z,3.97
2023-03-11T19:54:16.104Z,5.37
2023-03-11T19:56:44.447Z,4.47
2023-03-11T19:59:12.070Z,4.80
2023-03-11T20:01:39.474Z,4.83
2023-03-11T20:04:07.787Z,4.50
2023-03-11T20:06:35.615Z,4.27
2023-03-11T20:09:03.023Z,4.70
2023-03-11T20:11:30.641Z,4.70
2023-03-11T20:13:58.556Z,5.00
2023-03-11T20:16:25.897Z,3.50
2023-03-11T20:18:53.548Z,4.10
2023-03-11T20:21:21.372Z,4.67
2023-03-11T20:23:49.140Z,4.07
2023-03-11T20:26:18.924Z,4.90
2023-03-11T20:28:46.601Z,4.33
2023-03-11T20:31:17.039Z,5.03
2023-03-11T20:33:44.793Z,5.13
2023-03-11T20:36:16.680Z,5.17
2023-03-11T20:38:45.487Z,5.53
2023-03-11T20:41:13.175Z,5.83
2023-03-11T20:43:42.207Z,5.93
2023-03-11T20:46:11.868Z,4.93
2023-03-11T20:48:40.619Z,4.30
2023-03-11T20:51:11.080Z,4.87
2023-03-11T20:53:38.752Z,6.20
2023-03-11T20:56:11.386Z,7.20
2023-03-11T20:58:39.349Z,5.87
2023-03-11T21:01:17.856Z,4.73
2023-03-11T21:03:46.072Z,5.40
2023-03-11T21:06:21.417Z,6.53
2023-03-11T21:08:49.989Z,5.10
2023-03-11T21:11:17.906Z,7.40
2023-03-11T21:13:46.461Z,5.43
2023-03-11T21:16:14.111Z,5.53
2023-03-11T21:18:43.149Z,5.47
2023-03-11T21:21:11.808Z,5.47
2023-03-11T21:23:41.077Z,4.90
2023-03-11T21:26:09.166Z,5.43
2023-03-11T21:28:38.809Z,5.43
2023-03-11T21:31:08.845Z,5.70
2023-03-11T21:33:36.287Z,5.43
2023-03-11T21:36:04.092Z,5.23
2023-03-11T21:38:32.567Z,4.67
2023-03-11T21:41:10.942Z,5.27
2023-03-11T21:43:38.964Z,6.07
2023-03-11T21:46:07.465Z,6.30
2023-03-11T21:48:35.620Z,7.00
2023-03-11T21:51:03.916Z,6.77
2023-03-11T21:53:32.235Z,6.70
2023-03-11T21:56:00.057Z,7.40
2023-03-11T21:58:27.786Z,8.23
2023-03-11T22:00:55.166Z,6.17
2023-03-11T22:03:23.061Z,6.17
2023-03-11T22:05:55.831Z,6.90
2023-03-11T22:08:23.361Z,5.97
2023-03-11T22:10:51.016Z,6.97
2023-03-11T22:13:18.491Z,8.03
2023-03-11T22:15:46.407Z,8.83
2023-03-11T22:18:14.108Z,9.20
2023-03-11T22:20:42.260Z,10.30
2023-03-11T22:23:09.663Z,10.80
2023-03-11T22:25:37.264Z,10.23
2023-03-11T22:28:04.605Z,11.73
2023-03-11T22:30:31.955Z,13.03
2023-03-11T22:32:59.484Z,12.17
2023-03-11T22:35:26.835Z,12.20
2023-03-11T22:37:54.181Z,12.40
2023-03-11T22:40:21.474Z,15.50
2023-03-11T22:42:48.790Z,14.40
2023-03-11T22:45:16.468Z,13.10
2023-03-11T22:47:43.900Z,13.63
2023-03-11T22:50:11.780Z,12.77
2023-03-11T22:52:39.168Z,12.87
2023-03-11T22:55:06.739Z,14.23
2023-03-11T22:57:38.964Z,12.90
2023-03-11T23:00:17.056Z,13.87
2023-03-11T23:02:46.459Z,14.73
2023-03-11T23:05:14.877Z,14.67
2023-03-11T23:07:42.705Z,14.33
2023-03-11T23:10:12.087Z,17.20
2023-03-11T23:12:40.230Z,13.80
2023-03-11T23:15:09.374Z,14.73
2023-03-11T23:17:36.725Z,13.80
2023-03-11T23:20:05.628Z,12.70
2023-03-11T23:22:38.130Z,12.67
2023-03-11T23:25:06.205Z,13.13
2023-03-11T23:27:33.533Z,13.97
2023-03-11T23:30:01.161Z,14.40
2023-03-11T23:32:28.546Z,15.70
2023-03-11T23:34:55.892Z,14.57
2023-03-11T23:37:23.763Z,14.90
2023-03-11T23:39:51.117Z,16.40
2023-03-11T23:42:25.502Z,18.53
2023-03-11T23:44:53.484Z,15.97
2023-03-11T23:47:21.065Z,15.97
2023-03-11T23:49:48.819Z,12.53
2023-03-11T23:52:16.433Z,18.63
2023-03-11T23:54:43.785Z,15.40
2023-03-11T23:57:11.132Z,14.23
2023-03-11T23:59:38.533Z,13.63
